createdAt,value
2019-05-12T00:00:39.489Z,13.20
2019-05-12T00:01:39.446Z,13.23
2019-05-12T00:02:39.840Z,13.18
2019-05-12T00:03:39.418Z,13.19
2019-05-12T00:04:39.750Z,13.23
2019-05-12T00:05:39.639Z,13.16
2019-05-12T00:06:39.365Z,13.19
2019-05-12T00:07:39.467Z,13.11
2019-05-12T00:08:39.331Z,13.12
2019-05-12T00:09:39.345Z,13.11
2019-05-12T00:10:39.321Z,13.11
2019-05-12T00:11:39.349Z,13.11
2019-05-12T00:12:39.288Z,13.15
2019-05-12T00:13:39.420Z,13.11
2019-05-12T00:14:39.711Z,13.16
2019-05-12T00:15:39.285Z,13.11
2019-05-12T00:16:39.275Z,13.08
2019-05-12T00:17:39.239Z,13.05
2019-05-12T00:18:39.347Z,13.05
2019-05-12T00:19:39.220Z,13.08
2019-05-12T00:20:39.225Z,13.04
2019-05-12T00:21:39.916Z,13.01
2019-05-12T00:22:39.190Z,13.09
2019-05-12T00:23:39.236Z,13.01
2019-05-12T00:24:39.173Z,13.05
2019-05-12T00:25:39.162Z,13.08
2019-05-12T00:26:39.212Z,13.04
2019-05-12T00:27:39.258Z,13.04
2019-05-12T00:28:39.301Z,13.05
2019-05-12T00:29:39.228Z,13.13
2019-05-12T00:30:39.224Z,13.05
2019-05-12T00:31:39.230Z,13.09
2019-05-12T00:32:39.560Z,13.03
2019-05-12T00:33:39.663Z,13.09
2019-05-12T00:34:39.130Z,13.05
2019-05-12T00:35:39.090Z,13.13
2019-05-12T00:36:39.075Z,13.05
2019-05-12T00:37:39.176Z,13.03
2019-05-12T00:38:39.116Z,13.12
2019-05-12T00:39:39.176Z,13.04
2019-05-12T00:40:39.714Z,13.19
2019-05-12T00:41:39.211Z,13.09
2019-05-12T00:42:39.035Z,13.05
2019-05-12T00:43:38.956Z,13.09
2019-05-12T00:44:39.166Z,13.08
2019-05-12T00:45:39.122Z,13.09
2019-05-12T00:46:38.933Z,13.09
2019-05-12T00:47:39.078Z,13.09
2019-05-12T00:48:38.918Z,13.08
2019-05-12T00:49:39.014Z,13.05
2019-05-12T00:50:38.976Z,13.16
2019-05-12T00:51:39.003Z,13.13
2019-05-12T00:52:39.121Z,13.12
2019-05-12T00:53:43.236Z,13.11
2019-05-12T00:54:38.884Z,13.12
2019-05-12T00:55:38.954Z,13.13
2019-05-12T00:56:39.300Z,13.11
2019-05-12T00:57:38.821Z,13.11
2019-05-12T00:58:38.800Z,13.11
2019-05-12T00:59:38.958Z,13.09
2019-05-12T01:00:41.102Z,13.11
2019-05-12T01:01:38.770Z,13.13
2019-05-12T01:02:38.841Z,13.13
2019-05-12T01:03:38.834Z,13.16
2019-05-12T01:04:39.037Z,13.05
2019-05-12T01:05:38.909Z,13.12
2019-05-12T01:06:38.990Z,13.13
2019-05-12T01:07:38.780Z,13.12
2019-05-12T01:08:38.719Z,13.08
2019-05-12T01:09:38.701Z,13.03
2019-05-12T01:10:39.266Z,13.05
2019-05-12T01:11:38.832Z,13.03
2019-05-12T01:12:38.671Z,13.03
2019-05-12T01:13:38.757Z,13.04
2019-05-12T01:14:38.693Z,12.98
2019-05-12T01:15:38.752Z,12.95
2019-05-12T01:16:38.831Z,12.98
2019-05-12T01:17:40.495Z,13.01
2019-05-12T01:18:38.629Z,13.01
2019-05-12T01:19:40.540Z,12.91
2019-05-12T01:20:39.203Z,12.94
2019-05-12T01:21:38.575Z,12.97
2019-05-12T01:22:38.683Z,13.01
2019-05-12T01:23:53.362Z,12.90
2019-05-12T01:24:39.596Z,12.94
2019-05-12T01:25:39.626Z,12.97
2019-05-12T01:26:38.964Z,12.94
2019-05-12T01:27:38.549Z,12.95
2019-05-12T01:28:38.491Z,12.91
2019-05-12T01:29:38.674Z,12.90
2019-05-12T01:30:39.378Z,12.91
2019-05-12T01:31:38.486Z,12.95
2019-05-12T01:32:38.487Z,12.94
2019-05-12T01:33:38.439Z,12.93
2019-05-12T01:34:38.426Z,13.00
2019-05-12T01:35:39.127Z,13.00
2019-05-12T01:36:38.419Z,12.93
2019-05-12T01:37:38.590Z,13.00
2019-05-12T01:38:38.394Z,12.86
2019-05-12T01:39:38.380Z,12.94
2019-05-12T01:40:39.938Z,12.86
2019-05-12T01:41:38.989Z,12.87
2019-05-12T01:42:38.572Z,12.90
2019-05-12T01:43:38.343Z,12.93
2019-05-12T01:44:38.349Z,12.90
2019-05-12T01:45:38.455Z,12.90
2019-05-12T01:46:38.516Z,12.94
2019-05-12T01:47:38.514Z,12.85
2019-05-12T01:48:38.270Z,12.83
2019-05-12T01:49:38.315Z,12.82
2019-05-12T01:50:38.858Z,12.78
2019-05-12T01:51:38.653Z,12.78
2019-05-12T01:52:38.792Z,12.78
2019-05-12T01:53:38.265Z,12.76
2019-05-12T01:54:38.300Z,12.76
2019-05-12T01:55:38.896Z,12.75
2019-05-12T01:56:38.397Z,12.80
2019-05-12T01:57:38.733Z,12.78
2019-05-12T01:58:38.314Z,12.75
2019-05-12T01:59:38.242Z,12.70
2019-05-12T02:00:39.124Z,12.80
2019-05-12T02:01:38.817Z,12.70
2019-05-12T02:02:38.626Z,12.75
2019-05-12T02:03:38.262Z,12.78
2019-05-12T02:04:38.109Z,12.73
2019-05-12T02:05:38.182Z,12.78
2019-05-12T02:06:38.840Z,12.73
2019-05-12T02:07:38.386Z,12.72
2019-05-12T02:08:38.420Z,12.73
2019-05-12T02:09:38.704Z,12.76
2019-05-12T02:10:38.912Z,12.67
2019-05-12T02:11:38.195Z,12.75
2019-05-12T02:12:38.452Z,12.64
2019-05-12T02:13:38.156Z,12.70
2019-05-12T02:14:38.270Z,12.64
2019-05-12T02:15:38.472Z,12.76
2019-05-12T02:16:38.639Z,12.70
2019-05-12T02:17:39.151Z,12.75
2019-05-12T02:18:38.263Z,12.78
2019-05-12T02:19:38.528Z,12.65
2019-05-12T02:20:38.370Z,12.67
2019-05-12T02:21:38.679Z,12.61
2019-05-12T02:22:38.811Z,12.62
2019-05-12T02:23:38.720Z,12.70
2019-05-12T02:24:39.074Z,12.64
2019-05-12T02:25:38.293Z,12.61
2019-05-12T02:26:38.407Z,12.60
2019-05-12T02:27:38.486Z,12.60
2019-05-12T02:28:39.427Z,12.58
2019-05-12T02:29:38.482Z,12.61
2019-05-12T02:30:41.480Z,12.60
2019-05-12T02:31:39.731Z,12.61
2019-05-12T02:32:48.614Z,12.67
2019-05-12T02:33:39.332Z,12.60
2019-05-12T02:34:37.908Z,12.68
2019-05-12T02:35:37.901Z,12.67
2019-05-12T02:36:37.894Z,12.68
2019-05-12T02:37:37.762Z,12.68
2019-05-12T02:38:37.789Z,12.61
2019-05-12T02:39:37.732Z,12.68
2019-05-12T02:40:37.760Z,12.70
2019-05-12T02:41:37.821Z,12.70
2019-05-12T02:42:37.711Z,12.62
2019-05-12T02:43:38.073Z,12.67
2019-05-12T02:44:37.684Z,12.62
2019-05-12T02:45:37.668Z,12.62
2019-05-12T02:46:37.689Z,12.60
2019-05-12T02:47:37.703Z,12.68
2019-05-12T02:48:37.635Z,12.68
2019-05-12T02:49:37.632Z,12.65
2019-05-12T02:50:38.294Z,12.72
2019-05-12T02:51:37.713Z,12.68
2019-05-12T02:52:37.607Z,12.62
2019-05-12T02:53:37.590Z,12.64
2019-05-12T02:54:54.472Z,12.67
2019-05-12T02:55:38.561Z,12.67
2019-05-12T02:56:37.606Z,12.67
2019-05-12T02:57:37.545Z,12.70
2019-05-12T02:58:37.551Z,12.72
2019-05-12T02:59:37.516Z,12.70
2019-05-12T03:00:37.512Z,12.70
2019-05-12T03:01:37.536Z,12.68
2019-05-12T03:02:37.509Z,12.61
2019-05-12T03:03:37.522Z,12.68
2019-05-12T03:04:37.481Z,12.70
2019-05-12T03:05:37.453Z,12.68
2019-05-12T03:06:37.523Z,12.64
2019-05-12T03:07:37.453Z,12.68
2019-05-12T03:08:37.441Z,12.57
2019-05-12T03:09:37.482Z,12.65
2019-05-12T03:10:37.416Z,12.60
2019-05-12T03:11:37.451Z,12.58
2019-05-12T03:12:37.383Z,12.60
2019-05-12T03:13:37.391Z,12.57
2019-05-12T03:14:40.822Z,12.55
2019-05-12T03:15:37.797Z,12.53
2019-05-12T03:16:37.375Z,12.54
2019-05-12T03:17:38.249Z,12.53
2019-05-12T03:18:37.324Z,12.64
2019-05-12T03:19:37.305Z,12.53
2019-05-12T03:20:37.316Z,12.47
2019-05-12T03:21:37.320Z,12.61
2019-05-12T03:22:37.281Z,12.58
2019-05-12T03:23:37.270Z,12.54
2019-05-12T03:24:37.252Z,12.50
2019-05-12T03:25:37.543Z,12.57
2019-05-12T03:26:37.266Z,12.60
2019-05-12T03:27:37.237Z,12.54
2019-05-12T03:28:37.217Z,12.49
2019-05-12T03:29:37.198Z,12.49
2019-05-12T03:30:39.938Z,12.49
2019-05-12T03:31:40.603Z,12.53
2019-05-12T03:32:38.469Z,12.47
2019-05-12T03:33:43.336Z,12.58
2019-05-12T03:34:38.926Z,12.55
2019-05-12T03:35:42.602Z,12.50
2019-05-12T03:36:42.345Z,12.49
2019-05-12T03:37:37.118Z,12.50
2019-05-12T03:38:37.099Z,12.60
2019-05-12T03:39:37.092Z,12.61
2019-05-12T03:40:38.271Z,12.57
2019-05-12T03:41:37.111Z,12.53
2019-05-12T03:42:37.062Z,12.61
2019-05-12T03:43:37.050Z,12.57
2019-05-12T03:44:37.034Z,12.54
2019-05-12T03:45:37.040Z,12.57
2019-05-12T03:46:37.043Z,12.49
2019-05-12T03:47:37.009Z,12.58
2019-05-12T03:48:36.998Z,12.49
2019-05-12T03:49:37.021Z,12.57
2019-05-12T03:50:36.971Z,12.55
2019-05-12T03:51:37.005Z,12.50
2019-05-12T03:52:36.977Z,12.58
2019-05-12T03:53:36.944Z,12.49
2019-05-12T03:54:36.937Z,12.61
2019-05-12T03:55:41.963Z,12.53
2019-05-12T03:56:37.936Z,12.57
2019-05-12T03:57:36.902Z,12.60
2019-05-12T03:58:36.898Z,12.57
2019-05-12T03:59:36.880Z,12.58
2019-05-12T04:00:36.870Z,12.58
2019-05-12T04:01:37.089Z,12.60
2019-05-12T04:02:36.871Z,12.60
2019-05-12T04:03:36.830Z,12.55
2019-05-12T04:04:36.826Z,12.55
2019-05-12T04:05:36.822Z,12.55
2019-05-12T04:06:36.806Z,12.55
2019-05-12T04:07:36.812Z,12.64
2019-05-12T04:08:36.783Z,12.64
2019-05-12T04:09:36.769Z,12.67
2019-05-12T04:10:37.168Z,12.72
2019-05-12T04:11:36.753Z,12.68
2019-05-12T04:12:36.827Z,12.70
2019-05-12T04:13:36.722Z,12.70
2019-05-12T04:14:36.727Z,12.72
2019-05-12T04:15:36.705Z,12.72
2019-05-12T04:16:36.924Z,12.73
2019-05-12T04:17:36.730Z,12.67
2019-05-12T04:18:36.686Z,12.70
2019-05-12T04:19:36.664Z,12.65
2019-05-12T04:20:36.687Z,12.64
2019-05-12T04:21:36.639Z,12.68
2019-05-12T04:22:36.669Z,12.64
2019-05-12T04:23:36.621Z,12.64
2019-05-12T04:24:36.605Z,12.70
2019-05-12T04:25:50.846Z,12.58
2019-05-12T04:26:37.589Z,12.62
2019-05-12T04:27:36.610Z,12.57
2019-05-12T04:28:36.568Z,12.58
2019-05-12T04:29:36.567Z,12.58
2019-05-12T04:30:36.553Z,12.60
2019-05-12T04:31:36.546Z,12.57
2019-05-12T04:32:36.559Z,12.50
2019-05-12T04:33:36.511Z,12.54
2019-05-12T04:34:36.512Z,12.60
2019-05-12T04:35:36.533Z,12.57
2019-05-12T04:36:36.480Z,12.57
2019-05-12T04:37:36.510Z,12.60
2019-05-12T04:38:36.464Z,12.60
2019-05-12T04:39:36.466Z,12.54
2019-05-12T04:40:36.560Z,12.57
2019-05-12T04:41:36.489Z,12.60
2019-05-12T04:42:36.514Z,12.54
2019-05-12T04:43:36.450Z,12.60
2019-05-12T04:44:36.407Z,12.58
2019-05-12T04:45:36.394Z,12.55
2019-05-12T04:46:36.390Z,12.55
2019-05-12T04:47:36.401Z,12.54
2019-05-12T04:48:36.356Z,12.43
2019-05-12T04:49:36.374Z,12.45
2019-05-12T04:50:36.652Z,12.58
2019-05-12T04:51:36.332Z,12.47
2019-05-12T04:52:36.350Z,12.45
2019-05-12T04:53:36.304Z,12.54
2019-05-12T04:54:37.265Z,12.46
2019-05-12T04:55:36.740Z,12.54
2019-05-12T04:56:36.477Z,12.49
2019-05-12T04:57:36.342Z,12.58
2019-05-12T04:58:36.265Z,12.54
2019-05-12T04:59:36.240Z,12.53
2019-05-12T05:00:36.292Z,12.43
2019-05-12T05:01:36.226Z,12.42
2019-05-12T05:02:36.847Z,12.43
2019-05-12T05:03:36.198Z,12.57
2019-05-12T05:04:36.205Z,12.54
2019-05-12T05:05:36.442Z,12.49
2019-05-12T05:06:36.247Z,12.54
2019-05-12T05:07:36.291Z,12.57
2019-05-12T05:08:36.220Z,12.42
2019-05-12T05:09:36.204Z,12.47
2019-05-12T05:10:36.195Z,12.49
2019-05-12T05:11:36.211Z,12.50
2019-05-12T05:12:36.222Z,12.43
2019-05-12T05:13:39.474Z,12.45
2019-05-12T05:14:36.133Z,12.42
2019-05-12T05:15:36.183Z,12.49
2019-05-12T05:16:36.123Z,12.45
2019-05-12T05:17:36.147Z,12.49
2019-05-12T05:18:36.038Z,12.47
2019-05-12T05:19:36.029Z,12.42
2019-05-12T05:20:36.050Z,12.43
2019-05-12T05:21:36.017Z,12.54
2019-05-12T05:22:38.061Z,12.49
2019-05-12T05:23:35.990Z,12.47
2019-05-12T05:24:35.977Z,12.49
2019-05-12T05:25:35.977Z,12.46
2019-05-12T05:26:37.444Z,12.42
2019-05-12T05:27:35.978Z,12.42
2019-05-12T05:28:35.958Z,12.42
2019-05-12T05:29:37.220Z,12.43
2019-05-12T05:30:35.923Z,12.42
2019-05-12T05:31:35.898Z,12.58
2019-05-12T05:32:35.921Z,12.85
2019-05-12T05:33:35.946Z,12.93
2019-05-12T05:34:35.872Z,13.13
2019-05-12T05:35:39.668Z,13.25
2019-05-12T05:36:35.848Z,13.38
2019-05-12T05:37:41.198Z,13.41
2019-05-12T05:38:36.863Z,13.59
2019-05-12T05:39:47.550Z,13.60
2019-05-12T05:40:36.856Z,13.57
2019-05-12T05:41:40.292Z,13.74
2019-05-12T05:42:36.826Z,13.74
2019-05-12T05:43:35.798Z,13.75
2019-05-12T05:44:38.038Z,13.78
2019-05-12T05:45:35.754Z,13.74
2019-05-12T05:46:39.179Z,13.78
2019-05-12T05:47:36.731Z,13.83
2019-05-12T05:48:35.746Z,13.90
2019-05-12T05:49:35.709Z,13.78
2019-05-12T05:50:35.699Z,13.78
2019-05-12T05:51:39.439Z,13.79
2019-05-12T05:52:38.788Z,13.74
2019-05-12T05:53:35.705Z,13.79
2019-05-12T05:54:37.088Z,13.81
2019-05-12T05:55:35.653Z,13.67
2019-05-12T05:56:41.811Z,13.67
2019-05-12T05:57:36.626Z,13.62
2019-05-12T05:58:40.361Z,13.63
2019-05-12T05:59:37.015Z,13.77
2019-05-12T06:00:39.039Z,13.77
2019-05-12T06:01:40.069Z,13.78
2019-05-12T06:02:40.521Z,13.78
2019-05-12T06:03:35.664Z,13.74
2019-05-12T06:04:39.290Z,13.78
2019-05-12T06:05:38.707Z,13.68
2019-05-12T06:06:35.637Z,13.63
2019-05-12T06:07:39.173Z,13.57
2019-05-12T06:08:35.672Z,13.41
2019-05-12T06:09:35.596Z,13.47
2019-05-12T06:10:40.016Z,13.35
2019-05-12T06:11:36.535Z,13.42
2019-05-12T06:12:40.440Z,13.37
2019-05-12T06:13:39.763Z,13.30
2019-05-12T06:14:35.529Z,13.27
2019-05-12T06:15:40.384Z,13.23
2019-05-12T06:16:36.489Z,13.23
2019-05-12T06:17:35.471Z,13.28
2019-05-12T06:18:35.716Z,13.27
2019-05-12T06:19:35.531Z,13.30
2019-05-12T06:20:38.086Z,13.39
2019-05-12T06:21:38.155Z,13.41
2019-05-12T06:22:35.421Z,13.46
2019-05-12T06:23:39.169Z,13.52
2019-05-12T06:24:35.460Z,13.56
2019-05-12T06:25:46.211Z,13.53
2019-05-12T06:26:36.383Z,13.68
2019-05-12T06:27:36.001Z,13.79
2019-05-12T06:28:39.359Z,13.81
2019-05-12T06:29:36.321Z,13.90
2019-05-12T06:30:43.938Z,13.97
2019-05-12T06:31:36.327Z,14.04
2019-05-12T06:32:35.306Z,14.11
2019-05-12T06:33:36.341Z,14.22
2019-05-12T06:34:35.307Z,14.32
2019-05-12T06:35:42.108Z,14.40
2019-05-12T06:36:36.305Z,14.41
2019-05-12T06:37:35.268Z,14.63
2019-05-12T06:38:37.132Z,14.68
2019-05-12T06:39:36.229Z,14.73
2019-05-12T06:40:40.710Z,14.77
2019-05-12T06:41:36.263Z,14.79
2019-05-12T06:42:35.183Z,14.86
2019-05-12T06:43:39.553Z,14.88
2019-05-12T06:44:36.192Z,14.73
2019-05-12T06:45:42.088Z,14.91
2019-05-12T06:46:36.156Z,14.82
2019-05-12T06:47:39.428Z,14.77
2019-05-12T06:48:36.705Z,14.79
2019-05-12T06:49:35.119Z,14.84
2019-05-12T06:50:39.079Z,14.70
2019-05-12T06:51:35.097Z,14.70
2019-05-12T06:52:38.659Z,14.66
2019-05-12T06:53:36.172Z,14.58
2019-05-12T06:54:35.095Z,14.60
2019-05-12T06:55:39.135Z,14.50
2019-05-12T06:56:35.056Z,14.55
2019-05-12T06:57:35.090Z,14.69
2019-05-12T06:58:35.081Z,14.65
2019-05-12T06:59:35.122Z,14.70
2019-05-12T07:00:35.499Z,14.72
2019-05-12T07:01:34.987Z,14.81
2019-05-12T07:02:44.574Z,14.89
2019-05-12T07:03:37.307Z,14.96
2019-05-12T07:04:34.965Z,14.97
2019-05-12T07:05:38.379Z,15.14
2019-05-12T07:06:34.924Z,15.11
2019-05-12T07:07:41.943Z,15.28
2019-05-12T07:08:38.299Z,15.49
2019-05-12T07:09:39.777Z,15.52
2019-05-12T07:10:43.043Z,15.64
2019-05-12T07:11:45.079Z,15.83
2019-05-12T07:12:43.565Z,15.97
2019-05-12T07:13:35.809Z,15.92
2019-05-12T07:14:37.100Z,16.00
2019-05-12T07:15:40.202Z,16.02
2019-05-12T07:16:35.822Z,15.97
2019-05-12T07:17:42.866Z,16.05
2019-05-12T07:18:37.099Z,16.12
2019-05-12T07:19:34.778Z,16.21
2019-05-12T07:20:38.818Z,16.58
2019-05-12T07:21:34.720Z,16.96
2019-05-12T07:22:43.853Z,17.51
2019-05-12T07:23:35.693Z,18.13
2019-05-12T07:24:34.718Z,18.80
2019-05-12T07:25:36.882Z,19.89
2019-05-12T07:26:34.666Z,20.48
2019-05-12T07:27:39.321Z,20.74
2019-05-12T07:28:40.194Z,20.55
2019-05-12T07:29:34.675Z,20.13
2019-05-12T07:30:35.277Z,19.88
2019-05-12T07:31:34.617Z,19.52
2019-05-12T07:32:34.599Z,19.36
2019-05-12T07:33:41.422Z,19.47
2019-05-12T07:34:35.628Z,19.47
2019-05-12T07:35:34.579Z,19.69
2019-05-12T07:36:34.565Z,20.52
2019-05-12T07:37:34.554Z,21.99
2019-05-12T07:38:34.534Z,23.55
2019-05-12T07:39:36.987Z,24.84
2019-05-12T07:40:37.935Z,25.75
2019-05-12T07:41:34.504Z,26.58
2019-05-12T07:42:39.387Z,27.35
2019-05-12T07:43:35.481Z,27.92
2019-05-12T07:44:40.031Z,27.59
2019-05-12T07:45:35.798Z,27.93
2019-05-12T07:46:39.487Z,28.79
2019-05-12T07:47:35.447Z,29.50
2019-05-12T07:48:34.444Z,30.10
2019-05-12T07:49:38.610Z,30.72
2019-05-12T07:50:34.781Z,31.07
2019-05-12T07:51:38.304Z,31.62
2019-05-12T07:52:35.393Z,32.14
2019-05-12T07:53:34.394Z,32.70
2019-05-12T07:54:39.209Z,33.01
2019-05-12T07:55:39.628Z,33.32
2019-05-12T07:56:36.027Z,33.49
2019-05-12T07:57:37.958Z,33.65
2019-05-12T07:58:35.334Z,33.96
2019-05-12T07:59:40.667Z,34.16
2019-05-12T08:00:35.706Z,34.45
2019-05-12T08:01:35.844Z,34.66
2019-05-12T08:02:35.747Z,34.86
2019-05-12T08:03:34.601Z,35.17
2019-05-12T08:04:39.920Z,35.42
2019-05-12T08:05:35.312Z,35.74
2019-05-12T08:06:41.312Z,35.92
2019-05-12T08:07:35.244Z,35.98
2019-05-12T08:08:34.239Z,36.08
2019-05-12T08:09:36.375Z,36.24
2019-05-12T08:10:34.553Z,36.35
2019-05-12T08:11:38.702Z,36.64
2019-05-12T08:12:34.198Z,36.49
2019-05-12T08:13:37.830Z,36.40
2019-05-12T08:14:35.176Z,35.92
2019-05-12T08:15:34.340Z,35.86
2019-05-12T08:16:36.981Z,35.82
2019-05-12T08:17:34.161Z,35.89
2019-05-12T08:18:36.687Z,36.18
2019-05-12T08:19:35.158Z,36.46
2019-05-12T08:20:34.570Z,36.95
2019-05-12T08:21:42.628Z,36.96
2019-05-12T08:22:35.118Z,37.20
2019-05-12T08:23:34.125Z,37.28
2019-05-12T08:24:35.368Z,37.35
2019-05-12T08:25:35.142Z,36.99
2019-05-12T08:26:34.075Z,37.17
2019-05-12T08:27:34.185Z,36.96
2019-05-12T08:28:36.236Z,37.03
2019-05-12T08:29:35.047Z,37.37
2019-05-12T08:30:34.097Z,37.47
2019-05-12T08:31:40.144Z,37.47
2019-05-12T08:32:35.021Z,37.42
2019-05-12T08:33:34.720Z,37.30
2019-05-12T08:34:34.216Z,37.59
2019-05-12T08:35:38.000Z,37.82
2019-05-12T08:36:33.986Z,38.09
2019-05-12T08:37:34.013Z,38.09
2019-05-12T08:38:34.005Z,37.65
2019-05-12T08:39:34.049Z,37.40
2019-05-12T08:40:34.251Z,37.17
2019-05-12T08:41:34.254Z,36.89
2019-05-12T08:42:34.490Z,36.80
2019-05-12T08:43:34.384Z,36.36
2019-05-12T08:44:40.444Z,36.16
2019-05-12T08:45:37.498Z,36.18
2019-05-12T08:46:34.361Z,36.04
2019-05-12T08:47:37.510Z,36.05
2019-05-12T08:48:34.298Z,35.90
2019-05-12T08:49:49.136Z,36.18
2019-05-12T08:50:36.190Z,36.37
2019-05-12T08:51:34.054Z,36.42
2019-05-12T08:52:37.322Z,36.23
2019-05-12T08:53:34.835Z,36.31
2019-05-12T08:54:33.907Z,36.33
2019-05-12T08:55:35.830Z,36.47
2019-05-12T08:56:33.837Z,36.65
2019-05-12T08:57:40.780Z,36.86
2019-05-12T08:58:47.249Z,37.07
2019-05-12T08:59:34.780Z,37.14
2019-05-12T09:00:34.286Z,37.18
2019-05-12T09:01:34.465Z,37.20
2019-05-12T09:02:34.411Z,37.35
2019-05-12T09:03:33.782Z,37.39
2019-05-12T09:04:33.965Z,37.39
2019-05-12T09:05:38.327Z,37.35
2019-05-12T09:06:34.774Z,37.55
2019-05-12T09:07:35.786Z,37.60
2019-05-12T09:08:35.932Z,37.82
2019-05-12T09:09:34.703Z,37.84
2019-05-12T09:10:34.392Z,37.68
2019-05-12T09:11:33.764Z,37.70
2019-05-12T09:12:33.851Z,37.03
2019-05-12T09:13:33.966Z,36.62
2019-05-12T09:14:41.125Z,36.28
2019-05-12T09:15:34.888Z,36.20
2019-05-12T09:16:33.757Z,35.92
2019-05-12T09:17:36.968Z,35.85
2019-05-12T09:18:37.980Z,35.89
2019-05-12T09:19:34.678Z,35.89
2019-05-12T09:20:33.605Z,35.79
2019-05-12T09:21:34.876Z,36.27
2019-05-12T09:22:34.343Z,36.84
2019-05-12T09:23:41.223Z,37.26
2019-05-12T09:24:34.577Z,37.02
2019-05-12T09:25:34.244Z,36.81
2019-05-12T09:26:34.362Z,37.18
2019-05-12T09:27:33.633Z,37.13
2019-05-12T09:28:46.527Z,37.42
2019-05-12T09:29:34.529Z,37.94
2019-05-12T09:30:33.921Z,38.27
2019-05-12T09:31:33.861Z,38.40
2019-05-12T09:32:34.012Z,38.28
2019-05-12T09:33:34.735Z,38.55
2019-05-12T09:34:33.677Z,38.65
2019-05-12T09:35:39.079Z,38.64
2019-05-12T09:36:34.637Z,38.52
2019-05-12T09:37:39.050Z,38.40
2019-05-12T09:38:34.459Z,38.67
2019-05-12T09:39:42.858Z,38.79
2019-05-12T09:40:35.594Z,39.04
2019-05-12T09:41:42.060Z,39.04
2019-05-12T09:42:34.522Z,39.04
2019-05-12T09:43:34.374Z,39.33
2019-05-12T09:44:34.104Z,39.65
2019-05-12T09:45:34.435Z,39.97
2019-05-12T09:46:37.288Z,39.96
2019-05-12T09:47:34.337Z,40.09
2019-05-12T09:48:33.536Z,40.31
2019-05-12T09:49:39.141Z,40.51
2019-05-12T09:50:34.354Z,40.75
2019-05-12T09:51:41.147Z,40.81
2019-05-12T09:52:34.380Z,41.04
2019-05-12T09:53:34.091Z,41.22
2019-05-12T09:54:40.277Z,41.44
2019-05-12T09:55:34.470Z,41.60
2019-05-12T09:56:34.210Z,41.75
2019-05-12T09:57:40.776Z,41.87
2019-05-12T09:58:34.312Z,41.68
2019-05-12T09:59:33.659Z,41.66
2019-05-12T10:00:35.749Z,41.92
2019-05-12T10:01:35.309Z,42.38
2019-05-12T10:02:34.449Z,42.54
2019-05-12T10:03:38.399Z,42.63
2019-05-12T10:04:34.426Z,42.69
2019-05-12T10:05:37.701Z,42.78
2019-05-12T10:06:34.313Z,42.85
2019-05-12T10:07:33.933Z,42.73
2019-05-12T10:08:35.918Z,42.79
2019-05-12T10:09:33.600Z,42.19
2019-05-12T10:10:38.118Z,41.65
2019-05-12T10:11:34.244Z,40.97
2019-05-12T10:12:36.571Z,40.78
2019-05-12T10:13:34.205Z,40.77
2019-05-12T10:14:33.205Z,40.88
2019-05-12T10:15:33.364Z,40.73
2019-05-12T10:16:33.537Z,40.63
2019-05-12T10:17:34.100Z,40.63
2019-05-12T10:18:33.700Z,40.15
2019-05-12T10:19:34.015Z,39.52
2019-05-12T10:20:37.976Z,38.52
2019-05-12T10:21:36.022Z,37.45
2019-05-12T10:22:35.741Z,36.35
2019-05-12T10:23:34.225Z,35.18
2019-05-12T10:24:41.454Z,34.16
2019-05-12T10:25:34.330Z,33.27
2019-05-12T10:26:34.263Z,32.48
2019-05-12T10:27:34.529Z,31.73
2019-05-12T10:28:33.231Z,31.29
2019-05-12T10:29:33.274Z,30.72
2019-05-12T10:30:34.171Z,30.24
2019-05-12T10:31:35.692Z,29.75
2019-05-12T10:32:34.412Z,29.41
2019-05-12T10:33:33.798Z,29.20
2019-05-12T10:34:35.990Z,28.86
2019-05-12T10:35:35.100Z,28.74
2019-05-12T10:36:33.727Z,28.64
2019-05-12T10:37:33.370Z,28.51
2019-05-12T10:38:34.409Z,28.29
2019-05-12T10:39:33.538Z,28.08
2019-05-12T10:40:33.805Z,27.74
2019-05-12T10:41:34.210Z,27.26
2019-05-12T10:42:33.617Z,27.17
2019-05-12T10:43:34.208Z,27.02
2019-05-12T10:44:37.598Z,26.85
2019-05-12T10:45:34.144Z,26.65
2019-05-12T10:46:33.117Z,26.10
2019-05-12T10:47:34.343Z,25.77
2019-05-12T10:48:33.884Z,25.44
2019-05-12T10:49:33.803Z,25.33
2019-05-12T10:50:34.036Z,25.28
2019-05-12T10:51:34.344Z,25.26
2019-05-12T10:52:35.088Z,25.25
2019-05-12T10:53:34.432Z,25.13
2019-05-12T10:54:34.259Z,25.14
2019-05-12T10:55:33.734Z,25.07
2019-05-12T10:56:34.852Z,25.07
2019-05-12T10:57:33.415Z,25.03
2019-05-12T10:58:33.611Z,25.01
2019-05-12T10:59:38.254Z,24.93
2019-05-12T11:00:34.174Z,24.95
2019-05-12T11:01:32.923Z,24.88
2019-05-12T11:02:33.641Z,24.77
2019-05-12T11:03:33.799Z,24.81
2019-05-12T11:04:36.967Z,24.73
2019-05-12T11:05:34.369Z,24.57
2019-05-12T11:06:34.100Z,24.66
2019-05-12T11:07:34.056Z,24.55
2019-05-12T11:08:33.283Z,24.38
2019-05-12T11:09:34.575Z,24.35
2019-05-12T11:10:32.930Z,24.38
2019-05-12T11:11:41.744Z,24.21
2019-05-12T11:12:33.895Z,24.16
2019-05-12T11:13:33.847Z,24.11
2019-05-12T11:14:34.155Z,23.99
2019-05-12T11:15:34.351Z,23.81
2019-05-12T11:16:34.959Z,23.83
2019-05-12T11:17:33.520Z,23.80
2019-05-12T11:18:34.042Z,23.74
2019-05-12T11:19:33.775Z,23.68
2019-05-12T11:20:34.298Z,23.65
2019-05-12T11:21:33.643Z,23.58
2019-05-12T11:22:33.331Z,23.61
2019-05-12T11:23:34.484Z,23.54
2019-05-12T11:24:33.688Z,23.56
2019-05-12T11:25:34.167Z,23.46
2019-05-12T11:26:32.624Z,23.27
2019-05-12T11:27:34.411Z,23.36
2019-05-12T11:28:33.673Z,23.31
2019-05-12T11:29:45.555Z,23.25
2019-05-12T11:30:34.567Z,23.17
2019-05-12T11:31:33.469Z,23.06
2019-05-12T11:32:36.400Z,22.96
2019-05-12T11:33:34.130Z,22.96
2019-05-12T11:34:33.535Z,22.75
2019-05-12T11:35:32.420Z,22.69
2019-05-12T11:36:34.453Z,22.68
2019-05-12T11:37:33.811Z,22.66
2019-05-12T11:38:33.663Z,22.59
2019-05-12T11:39:38.743Z,22.55
2019-05-12T11:40:34.766Z,22.53
2019-05-12T11:41:33.352Z,22.47
2019-05-12T11:42:33.596Z,22.47
2019-05-12T11:43:33.774Z,22.48
2019-05-12T11:44:33.699Z,22.45
2019-05-12T11:45:33.676Z,22.36
2019-05-12T11:46:36.193Z,22.50
2019-05-12T11:47:34.641Z,22.35
2019-05-12T11:48:33.829Z,22.47
2019-05-12T11:49:33.352Z,22.32
2019-05-12T11:50:32.363Z,22.50
2019-05-12T11:51:34.117Z,22.41
2019-05-12T11:52:33.394Z,22.45
2019-05-12T11:53:34.885Z,22.41
2019-05-12T11:54:33.526Z,22.30
2019-05-12T11:55:34.721Z,22.26
2019-05-12T11:56:33.594Z,22.25
2019-05-12T11:57:33.706Z,22.20
2019-05-12T11:58:33.531Z,22.23
2019-05-12T11:59:34.108Z,22.22
2019-05-12T12:00:33.647Z,22.18
2019-05-12T12:01:34.423Z,22.22
2019-05-12T12:02:34.206Z,22.25
2019-05-12T12:03:33.648Z,22.25
2019-05-12T12:04:34.035Z,22.28
2019-05-12T12:05:33.829Z,22.32
2019-05-12T12:06:33.174Z,22.35
2019-05-12T12:07:33.256Z,22.33
2019-05-12T12:08:36.977Z,22.35
2019-05-12T12:09:33.121Z,22.17
2019-05-12T12:10:37.538Z,22.22
2019-05-12T12:11:34.217Z,22.25
2019-05-12T12:12:34.466Z,22.25
2019-05-12T12:13:33.671Z,22.22
2019-05-12T12:14:34.291Z,22.23
2019-05-12T12:15:34.231Z,22.20
2019-05-12T12:16:33.993Z,22.28
2019-05-12T12:17:35.145Z,22.23
2019-05-12T12:18:33.773Z,22.22
2019-05-12T12:19:37.768Z,22.22
2019-05-12T12:20:33.769Z,22.20
2019-05-12T12:21:34.918Z,22.20
2019-05-12T12:22:33.874Z,22.18
2019-05-12T12:23:33.445Z,22.08
2019-05-12T12:24:31.923Z,22.08
2019-05-12T12:25:34.315Z,22.14
2019-05-12T12:26:34.892Z,22.17
2019-05-12T12:27:32.997Z,22.14
2019-05-12T12:28:31.863Z,21.96
2019-05-12T12:29:31.924Z,22.04
2019-05-12T12:30:33.913Z,21.95
2019-05-12T12:31:37.326Z,21.98
2019-05-12T12:32:33.946Z,21.88
2019-05-12T12:33:38.591Z,21.75
2019-05-12T12:34:33.196Z,21.82
2019-05-12T12:35:34.050Z,21.80
2019-05-12T12:36:34.030Z,21.92
2019-05-12T12:37:33.169Z,21.91
2019-05-12T12:38:33.452Z,21.92
2019-05-12T12:39:31.758Z,21.99
2019-05-12T12:40:32.213Z,22.10
2019-05-12T12:41:34.033Z,22.15
2019-05-12T12:42:36.527Z,22.13
2019-05-12T12:43:32.697Z,22.15
2019-05-12T12:44:33.962Z,22.15
2019-05-12T12:45:36.658Z,22.14
2019-05-12T12:46:33.819Z,22.18
2019-05-12T12:47:38.034Z,22.10
2019-05-12T12:48:33.351Z,22.08
2019-05-12T12:49:33.766Z,22.15
2019-05-12T12:50:31.618Z,22.14
2019-05-12T12:51:31.612Z,22.14
2019-05-12T12:52:33.265Z,22.07